La Plata, Missouri
Current Conditions -  °F | °C
As of 1:55 PM on Friday 24 Oct 2014 (Local Time) from KIRK Reporting Station
Haze Haze  
Wind Chill: 64°   Ceiling: 700
Heat Index: 64°   Visibility: 4mi
Dew Point: 61°   Wind: 13mph
Humidity: 90%   Direction: 180°S
Pressure: 29.99"   Gusts: NA
Location:  40.02°N, 92.49°W
Report Text: KIRK 241855Z AUTO 18011KT 4SM BR OVC007 18/16 A2999 RMK AO2 CIG 006V010 SLP156 T01780161
Loading
Personal Weather Stations






























Interactive Weather Map
Tropical Storm Tracking
New forecast layout! Learn more

10-Day Weather Forecast

Advertisements
Track Severe Weather on mobile